Time;durP1;ratioP1;P1;durP2;ratioP2;P2;SDS_P1;SDS_P2;PMS_P1;PMS_P2;Temp;Humidity;BMP_temperature;BMP_pressure;BME280_temperature;BME280_humidity;BME280_pressure;Samples;Min_cycle;Max_cycle;Signal;HPM_P1;HPM_P2
2023/12/27 00:00:35;;;;;;;;;12.33;11.00;;;;;12.17;76.11;101589.69;4995091;28;45762;-77
2023/12/27 00:03:00;;;;;;;;;11.67;11.67;;;;;12.12;75.76;101596.41;4994699;28;45494;-77
2023/12/27 00:05:25;;;;;;;;;11.67;9.00;;;;;11.61;75.68;101506.66;4996572;28;45447;-78
2023/12/27 00:07:51;;;;;;;;;11.33;11.00;;;;;12.02;76.20;101580.41;4993391;28;46174;-76
2023/12/27 00:10:16;;;;;;;;;14.67;12.33;;;;;12.12;76.10;101607.94;4994102;28;45478;-79
2023/12/27 00:12:42;;;;;;;;;10.67;10.00;;;;;12.06;75.97;101602.28;4995344;28;45280;-77
2023/12/27 00:15:08;;;;;;;;;10.00;10.00;;;;;11.84;75.88;101556.19;4995083;28;45622;-75
2023/12/27 00:17:34;;;;;;;;;12.33;10.33;;;;;11.88;75.93;101557.59;4992944;28;45882;-77
2023/12/27 00:19:59;;;;;;;;;14.00;12.00;;;;;12.00;75.69;101576.16;4994445;28;45409;-79
2023/12/27 00:22:25;;;;;;;;;11.00;11.00;;;;;11.79;76.31;101549.53;4994490;28;45445;-77
2023/12/27 00:24:50;;;;;;;;;11.00;11.00;;;;;11.88;76.34;101567.41;4985281;28;46327;-79
2023/12/27 00:27:15;;;;;;;;;10.33;10.33;;;;;11.83;76.49;101570.47;4994652;28;45470;-77
2023/12/27 00:29:41;;;;;;;;;11.00;11.00;;;;;11.88;76.07;101592.25;4993570;28;45358;-77
2023/12/27 00:32:09;;;;;;;;;16.00;11.00;;;;;11.90;76.50;101586.78;4994763;28;45445;-78
2023/12/27 00:34:38;;;;;;;;;13.00;12.00;;;;;11.94;76.43;101574.03;4994192;28;45447;-76
2023/12/27 00:37:04;;;;;;;;;12.67;12.00;;;;;11.66;76.08;101523.09;4994370;28;46367;-78
2023/12/27 00:39:29;;;;;;;;;14.33;12.00;;;;;11.71;76.31;101544.84;4994764;28;45375;-76
2023/12/27 00:41:55;;;;;;;;;11.00;10.00;;;;;11.76;76.52;101561.28;4999137;28;45670;-76
2023/12/27 00:44:20;;;;;;;;;11.00;11.00;;;;;11.70;76.44;101551.16;4996209;28;45523;-78
2023/12/27 00:46:45;;;;;;;;;15.00;14.33;;;;;11.75;76.63;101562.25;4999409;28;47403;-77
2023/12/27 00:49:11;;;;;;;;;15.00;12.67;;;;;11.69;76.62;101537.97;4996966;28;45760;-78
2023/12/27 00:51:37;;;;;;;;;11.33;9.67;;;;;11.63;76.85;101523.38;4997545;28;45443;-77
2023/12/27 00:54:02;;;;;;;;;9.00;6.33;;;;;11.73;76.96;101544.72;4998385;28;45441;-76
2023/12/27 00:56:27;;;;;;;;;14.33;11.00;;;;;11.12;76.63;101444.31;4996832;28;46395;-76
2023/12/27 00:58:53;;;;;;;;;16.33;11.67;;;;;11.68;77.05;101544.28;5011437;28;45405;-77
2023/12/27 01:01:18;;;;;;;;;10.67;10.33;;;;;11.70;77.04;101555.63;4996202;28;45628;-76
2023/12/27 01:03:44;;;;;;;;;13.00;13.00;;;;;11.63;76.48;101536.69;5012862;28;45312;-79
2023/12/27 01:06:10;;;;;;;;;9.00;9.00;;;;;11.64;76.55;101533.03;5000628;28;45550;-76
2023/12/27 01:08:35;;;;;;;;;9.33;9.33;;;;;11.60;77.25;101531.59;4990849;28;45454;-76
2023/12/27 01:11:01;;;;;;;;;11.67;10.00;;;;;11.00;77.08;101440.00;4996314;28;45656;-77
2023/12/27 01:13:26;;;;;;;;;8.67;8.33;;;;;11.48;76.98;101517.53;4996379;28;45617;-76
2023/12/27 01:15:52;;;;;;;;;12.67;12.00;;;;;11.36;77.41;101504.41;4996764;28;45571;-76
2023/12/27 01:18:17;;;;;;;;;10.33;9.33;;;;;11.57;77.28;101548.69;4996182;28;45515;-76
2023/12/27 01:20:42;;;;;;;;;11.67;11.67;;;;;11.47;77.18;101515.84;4996636;28;45290;-77
2023/12/27 01:23:07;;;;;;;;;11.00;10.00;;;;;11.58;76.84;101550.38;4996704;28;45373;-76
2023/12/27 01:25:33;;;;;;;;;10.67;10.67;;;;;11.58;77.08;101560.19;4995148;28;46621;-75
2023/12/27 01:27:58;;;;;;;;;12.00;10.33;;;;;11.61;77.30;101559.91;4978820;28;45472;-77
2023/12/27 01:30:23;;;;;;;;;13.33;11.67;;;;;11.57;76.93;101539.84;4994982;28;45519;-76
2023/12/27 01:32:49;;;;;;;;;9.00;7.67;;;;;11.64;77.15;101551.69;4997131;28;45283;-78
2023/12/27 01:35:15;;;;;;;;;9.00;9.00;;;;;11.67;76.73;101542.59;4995991;28;46033;-77
2023/12/27 01:37:41;;;;;;;;;11.33;9.00;;;;;11.38;76.74;101500.63;4997934;28;45600;-76
2023/12/27 01:40:07;;;;;;;;;9.00;9.00;;;;;11.63;76.59;101534.03;4995871;28;45388;-77
2023/12/27 01:42:33;;;;;;;;;10.00;9.00;;;;;11.45;76.71;101501.81;4988991;28;45437;-77
2023/12/27 01:44:59;;;;;;;;;10.67;10.00;;;;;11.63;76.52;101536.69;4995701;28;45683;-76
2023/12/27 01:47:25;;;;;;;;;11.00;9.67;;;;;11.64;76.36;101535.72;4996520;28;45818;-75
2023/12/27 01:49:52;;;;;;;;;10.67;9.00;;;;;11.61;76.59;101562.56;4996453;28;45418;-76
2023/12/27 01:52:19;;;;;;;;;10.33;10.33;;;;;11.37;76.30;101533.56;4998441;28;45728;-79
2023/12/27 01:54:44;;;;;;;;;8.67;8.67;;;;;11.52;76.53;101555.38;4995480;28;45448;-78
2023/12/27 01:57:10;;;;;;;;;10.67;9.00;;;;;11.50;77.07;101528.03;4995149;28;45740;-75
2023/12/27 01:59:36;;;;;;;;;7.00;7.00;;;;;11.51;76.80;101527.06;4995399;28;45540;-78
2023/12/27 02:02:01;;;;;;;;;12.67;11.00;;;;;11.50;76.38;101538.69;4995860;28;45267;-78
2023/12/27 02:04:27;;;;;;;;;7.33;7.33;;;;;10.93;76.62;101445.00;4994924;28;45922;-76
2023/12/27 02:06:53;;;;;;;;;10.00;9.33;;;;;11.41;77.08;101500.41;4995517;28;45450;-76
2023/12/27 02:09:19;;;;;;;;;9.33;8.00;;;;;11.36;76.74;101496.41;4995302;28;45461;-76
2023/12/27 02:11:45;;;;;;;;;12.00;8.67;;;;;11.38;77.25;101521.09;4986637;28;45443;-77
2023/12/27 02:14:10;;;;;;;;;8.33;8.33;;;;;11.39;77.08;101528.94;4994277;28;45441;-77
2023/12/27 02:16:37;;;;;;;;;12.33;11.67;;;;;11.41;76.68;101520.81;4994794;28;45442;-76
2023/12/27 02:19:04;;;;;;;;;8.33;8.33;;;;;11.36;76.22;101536.34;4994708;28;45329;-75
2023/12/27 02:21:31;;;;;;;;;9.00;9.00;;;;;11.30;76.47;101512.91;4996213;28;45272;-77
2023/12/27 02:24:01;;;;;;;;;10.67;9.00;;;;;11.37;76.32;101528.22;4995370;28;45481;-78
2023/12/27 02:26:26;;;;;;;;;10.00;10.00;;;;;11.27;76.64;101496.25;4994829;28;45595;-77
2023/12/27 02:28:52;;;;;;;;;9.00;8.00;;;;;11.19;76.70;101496.03;4993078;28;45817;-77
2023/12/27 02:31:22;;;;;;;;;9.00;9.00;;;;;11.37;76.92;101520.25;5009557;28;45430;-77
2023/12/27 02:33:48;;;;;;;;;9.33;8.33;;;;;11.42;76.23;101525.19;4994528;28;46371;-78
2023/12/27 02:36:13;;;;;;;;;9.67;9.33;;;;;11.43;76.51;101525.06;4994985;28;45535;-77
2023/12/27 02:38:38;;;;;;;;;9.00;9.00;;;;;11.42;76.32;101522.53;4995349;28;45422;-77
2023/12/27 02:41:04;;;;;;;;;7.00;7.00;;;;;11.42;76.51;101514.56;4994777;28;45414;-77
2023/12/27 02:43:29;;;;;;;;;9.33;7.33;;;;;11.34;75.93;101504.53;4994485;28;45954;-77
2023/12/27 02:45:54;;;;;;;;;8.00;6.33;;;;;11.34;75.94;101485.06;4994901;28;46996;-77
2023/12/27 02:48:20;;;;;;;;;6.67;6.67;;;;;11.40;75.71;101497.84;4993493;28;45360;-77
2023/12/27 02:50:45;;;;;;;;;8.00;5.00;;;;;11.38;75.71;101476.66;4988623;28;45446;-78
2023/12/27 02:53:11;;;;;;;;;6.67;6.67;;;;;11.41;75.50;101470.22;4993821;28;46434;-75
2023/12/27 02:55:36;;;;;;;;;9.33;8.00;;;;;11.43;75.23;101466.50;4995075;28;45335;-76
2023/12/27 02:58:03;;;;;;;;;8.33;7.00;;;;;11.13;75.86;101416.72;4998793;28;45237;-77
2023/12/27 03:00:34;;;;;;;;;11.67;7.00;;;;;11.22;75.40;101434.56;4999103;28;44730;-76
2023/12/27 03:03:00;;;;;;;;;6.00;5.00;;;;;11.30;75.41;101443.72;4997304;28;45315;-77
2023/12/27 03:05:25;;;;;;;;;7.00;7.00;;;;;11.44;75.39;101475.31;4994385;28;45514;-77
2023/12/27 03:07:51;;;;;;;;;7.33;5.00;;;;;10.83;75.21;101366.13;4995989;28;45495;-77
2023/12/27 03:10:16;;;;;;;;;7.67;7.00;;;;;11.48;75.10;101479.41;4995501;28;45581;-76
2023/12/27 03:12:42;;;;;;;;;10.67;8.00;;;;;11.23;74.80;101424.78;4994670;28;46650;-77
2023/12/27 03:15:07;;;;;;;;;7.67;6.67;;;;;11.44;75.06;101456.69;4993868;28;45605;-78
2023/12/27 03:17:33;;;;;;;;;8.00;8.00;;;;;11.27;74.20;101437.69;5012390;28;46039;-75
2023/12/27 03:19:58;;;;;;;;;7.33;7.00;;;;;11.40;74.76;101460.56;4991524;28;45517;-75
2023/12/27 03:22:23;;;;;;;;;8.67;8.00;;;;;11.43;74.42;101466.50;4992805;28;46154;-76
2023/12/27 03:24:49;;;;;;;;;8.67;6.67;;;;;11.23;74.68;101430.09;4996284;28;45597;-75
2023/12/27 03:27:14;;;;;;;;;5.00;5.00;;;;;11.50;74.71;101461.47;4994050;28;45741;-76
2023/12/27 03:29:39;;;;;;;;;10.33;9.33;;;;;11.53;74.61;101464.72;4994143;28;45474;-78
2023/12/27 03:32:05;;;;;;;;;7.67;6.33;;;;;10.98;74.34;101370.13;4993220;28;47916;-77
2023/12/27 03:34:30;;;;;;;;;6.67;6.67;;;;;11.49;74.62;101449.13;4994209;28;45517;-76
2023/12/27 03:36:56;;;;;;;;;8.00;6.00;;;;;11.58;74.63;101453.66;4994479;28;45462;-77
2023/12/27 03:39:21;;;;;;;;;10.00;6.67;;;;;11.38;74.16;101404.78;4993758;28;45556;-78
2023/12/27 03:41:46;;;;;;;;;11.67;9.00;;;;;11.50;74.00;101430.38;4994000;28;45804;-78
2023/12/27 03:44:12;;;;;;;;;8.00;8.00;;;;;11.48;74.38;101426.16;4994131;28;45384;-75
2023/12/27 03:46:37;;;;;;;;;11.67;8.00;;;;;11.20;74.33;101375.28;4993653;28;45542;-76
2023/12/27 03:49:03;;;;;;;;;5.67;5.67;;;;;11.45;74.13;101410.44;4994223;28;45495;-76
2023/12/27 03:51:29;;;;;;;;;7.33;7.00;;;;;11.50;74.22;101421.53;4993932;28;45532;-75
2023/12/27 03:53:54;;;;;;;;;6.00;6.00;;;;;11.48;74.14;101416.34;4996413;28;45455;-78
2023/12/27 03:56:19;;;;;;;;;9.33;7.67;;;;;11.32;74.27;101404.50;4997921;28;45450;-77
2023/12/27 03:58:45;;;;;;;;;7.00;7.00;;;;;11.52;74.09;101435.56;4994611;28;45640;-78
2023/12/27 04:01:12;;;;;;;;;8.67;7.67;;;;;11.47;74.17;101413.81;4994239;28;45539;-76
2023/12/27 04:03:40;;;;;;;;;6.67;6.67;;;;;11.55;73.69;101429.94;4994178;28;45524;-77
2023/12/27 04:06:05;;;;;;;;;8.67;8.00;;;;;11.55;74.28;101420.16;4995846;28;45516;-75
2023/12/27 04:08:30;;;;;;;;;7.67;6.33;;;;;11.51;73.75;101412.56;4995363;28;45394;-78
2023/12/27 04:10:56;;;;;;;;;8.33;8.00;;;;;11.59;73.65;101424.22;4987050;28;46250;-76
2023/12/27 04:13:21;;;;;;;;;7.33;7.33;;;;;11.59;73.59;101426.03;4993732;28;45577;-77
2023/12/27 04:15:46;;;;;;;;;8.33;6.33;;;;;11.29;73.80;101381.63;4994225;28;45476;-77
2023/12/27 04:18:12;;;;;;;;;5.67;5.67;;;;;11.42;73.57;101397.41;4986778;28;45505;-78
2023/12/27 04:20:37;;;;;;;;;7.00;7.00;;;;;11.56;73.86;101423.66;4993408;28;45968;-76
2023/12/27 04:23:03;;;;;;;;;8.00;7.33;;;;;11.38;73.24;101394.13;5001145;28;45598;-76
2023/12/27 04:25:28;;;;;;;;;9.33;8.67;;;;;11.42;73.87;101405.38;4993566;28;45619;-77
2023/12/27 04:27:53;;;;;;;;;5.00;5.00;;;;;11.47;73.88;101408.50;4994628;28;45501;-77
2023/12/27 04:30:18;;;;;;;;;7.67;6.00;;;;;11.44;73.78;101398.94;5001503;28;47692;-76
2023/12/27 04:32:44;;;;;;;;;6.33;6.33;;;;;11.33;74.11;101366.25;4996694;28;45488;-77
2023/12/27 04:35:09;;;;;;;;;6.33;5.33;;;;;11.36;74.04;101373.94;4997821;28;45429;-76
2023/12/27 04:37:36;;;;;;;;;8.00;8.00;;;;;10.79;73.98;101283.06;5001341;28;46815;-77
2023/12/27 04:40:01;;;;;;;;;7.33;7.33;;;;;11.25;73.86;101367.75;5004781;28;45323;-77
2023/12/27 04:42:26;;;;;;;;;8.33;6.67;;;;;11.24;74.61;101374.06;4999025;28;46262;-77
2023/12/27 04:44:52;;;;;;;;;10.00;7.00;;;;;11.13;74.10;101358.16;4999312;28;45586;-77
2023/12/27 04:47:17;;;;;;;;;6.00;6.00;;;;;11.19;74.49;101370.94;4997464;28;45276;-75
2023/12/27 04:49:43;;;;;;;;;6.67;6.67;;;;;11.18;74.44;101371.06;4996224;28;47228;-75
2023/12/27 04:52:09;;;;;;;;;7.00;6.00;;;;;11.16;74.66;101362.38;4996525;28;45516;-78
2023/12/27 04:54:34;;;;;;;;;6.00;6.00;;;;;11.10;74.30;101344.28;4987141;28;45519;-77
2023/12/27 04:56:59;;;;;;;;;9.00;6.33;;;;;11.10;74.33;101341.63;4996540;28;45498;-77
2023/12/27 04:59:25;;;;;;;;;5.00;5.00;;;;;10.94;74.22;101331.47;4995994;28;45363;-77
2023/12/27 05:01:50;;;;;;;;;5.00;5.00;;;;;11.14;74.46;101370.50;4988165;28;45300;-77
2023/12/27 05:04:16;;;;;;;;;6.00;6.00;;;;;11.11;74.20;101370.75;4997054;28;45354;-77
2023/12/27 05:06:41;;;;;;;;;8.00;8.00;;;;;11.07;74.25;101358.69;4997752;28;45444;-77
2023/12/27 05:09:07;;;;;;;;;6.00;5.00;;;;;10.64;74.54;101292.38;4997096;28;46687;-78
2023/12/27 05:11:32;;;;;;;;;6.00;6.00;;;;;11.11;74.46;101370.75;4997038;28;45426;-77
2023/12/27 05:13:57;;;;;;;;;9.00;7.67;;;;;10.85;74.10;101338.41;4995617;28;45319;-78
2023/12/27 05:16:23;;;;;;;;;6.67;5.67;;;;;10.98;74.03;101343.50;4998102;28;45525;-77
2023/12/27 05:18:49;;;;;;;;;7.00;7.00;;;;;11.01;73.80;101340.59;4996401;28;45283;-77
2023/12/27 05:21:17;;;;;;;;;9.00;6.00;;;;;10.99;74.07;101350.53;4994376;28;45407;-75
2023/12/27 05:23:42;;;;;;;;;5.67;5.67;;;;;11.05;73.87;101376.63;4996093;28;45240;-77
2023/12/27 05:26:08;;;;;;;;;8.00;6.00;;;;;10.98;74.18;101362.13;4994014;28;45387;-77
2023/12/27 05:28:34;;;;;;;;;5.67;4.67;;;;;11.07;74.22;101368.50;4991101;28;47916;-77
2023/12/27 05:30:59;;;;;;;;;6.00;6.00;;;;;11.06;74.32;101354.34;5000099;28;45512;-76
2023/12/27 05:33:25;;;;;;;;;8.33;6.67;;;;;11.03;73.95;101361.75;4995986;28;45677;-77
2023/12/27 05:35:51;;;;;;;;;5.00;5.00;;;;;11.06;74.07;101357.03;4997025;28;45610;-77
2023/12/27 05:38:16;;;;;;;;;6.67;5.67;;;;;10.95;74.19;101341.13;4986923;28;45476;-77
2023/12/27 05:40:42;;;;;;;;;8.33;6.00;;;;;11.06;73.99;101356.19;4995782;28;45399;-76
2023/12/27 05:43:07;;;;;;;;;5.00;5.00;;;;;10.98;73.70;101343.50;4993640;28;45488;-76
2023/12/27 05:45:33;;;;;;;;;8.67;8.67;;;;;10.77;73.36;101308.13;4989576;28;45429;-76
2023/12/27 05:47:58;;;;;;;;;9.00;5.67;;;;;10.78;74.42;101315.97;4995144;28;45462;-77
2023/12/27 05:50:24;;;;;;;;;5.00;4.33;;;;;10.89;74.03;101339.00;4986337;28;45434;-77
2023/12/27 05:52:49;;;;;;;;;7.33;6.33;;;;;10.94;73.82;101331.47;4995390;28;45469;-77
2023/12/27 05:55:15;;;;;;;;;8.33;6.33;;;;;10.92;74.17;101333.41;4987341;28;45445;-77
2023/12/27 05:57:40;;;;;;;;;5.00;5.00;;;;;10.96;73.49;101335.66;4995136;28;45982;-77
2023/12/27 06:00:10;;;;;;;;;6.00;5.67;;;;;10.90;73.83;101338.03;4994577;28;45419;-77
2023/12/27 06:02:36;;;;;;;;;9.00;8.00;;;;;10.84;73.55;101319.94;4995292;28;45511;-76
2023/12/27 06:05:02;;;;;;;;;4.33;4.33;;;;;10.82;73.92;101332.53;4995389;28;45585;-76
2023/12/27 06:07:28;;;;;;;;;6.00;4.67;;;;;10.88;73.84;101339.97;4995395;28;45902;-78
2023/12/27 06:09:53;;;;;;;;;6.33;6.00;;;;;10.82;73.51;101337.84;4996216;28;45495;-76
2023/12/27 06:12:18;;;;;;;;;7.33;5.00;;;;;10.79;73.93;101338.91;4995334;28;45405;-77
2023/12/27 06:14:45;;;;;;;;;5.33;4.67;;;;;10.77;74.16;101327.56;4987826;28;45727;-77
2023/12/27 06:17:10;;;;;;;;;9.33;7.00;;;;;10.70;74.36;101328.25;5006843;28;46116;-77
2023/12/27 06:19:36;;;;;;;;;6.00;5.33;;;;;10.30;74.27;101263.34;4996594;28;45394;-77
2023/12/27 06:22:02;;;;;;;;;5.67;5.00;;;;;10.69;74.05;101327.41;4996396;28;45391;-78
2023/12/27 06:24:28;;;;;;;;;10.33;6.00;;;;;10.63;73.96;101325.28;4994801;28;45438;-77
2023/12/27 06:26:53;;;;;;;;;10.00;7.00;;;;;10.82;73.92;101353.81;4995257;28;45552;-78
2023/12/27 06:29:18;;;;;;;;;6.00;5.00;;;;;10.83;74.08;101356.34;4994751;28;46691;-76
2023/12/27 06:31:44;;;;;;;;;3.00;1.67;;;;;10.65;73.85;101320.66;4995693;28;45637;-77
2023/12/27 06:34:09;;;;;;;;;2.67;2.67;;;;;10.72;74.25;101347.56;4997254;28;45623;-76
2023/12/27 06:36:34;;;;;;;;;8.00;5.33;;;;;10.55;73.96;101325.91;4995732;28;45412;-77
2023/12/27 06:39:00;;;;;;;;;3.33;3.33;;;;;10.69;74.08;101331.88;4990026;28;45320;-76
2023/12/27 06:41:27;;;;;;;;;8.33;7.67;;;;;10.62;74.10;101337.72;4994426;28;45350;-76
2023/12/27 06:43:53;;;;;;;;;6.00;6.00;;;;;10.73;73.90;101359.88;4995597;28;45543;-76
2023/12/27 06:46:18;;;;;;;;;6.33;5.00;;;;;10.65;73.97;101341.94;4994984;28;45475;-79
2023/12/27 06:48:44;;;;;;;;;4.67;4.67;;;;;10.58;74.00;101333.59;4996520;28;45304;-78
2023/12/27 06:51:12;;;;;;;;;6.00;6.00;;;;;10.57;74.37;101331.94;4996212;28;45363;-78
2023/12/27 06:53:37;;;;;;;;;6.33;6.33;;;;;9.92;74.11;101231.97;4996381;28;45259;-77
2023/12/27 06:56:03;;;;;;;;;5.00;5.00;;;;;9.83;73.95;101216.81;4994645;28;45831;-77
2023/12/27 06:58:28;;;;;;;;;9.00;6.33;;;;;10.52;74.74;101331.47;4995199;28;45611;-77
2023/12/27 07:00:54;;;;;;;;;5.33;4.33;;;;;10.47;74.86;101317.75;4995423;28;45414;-76
2023/12/27 07:03:19;;;;;;;;;7.00;6.00;;;;;10.56;74.19;101335.56;4999412;28;45368;-77
2023/12/27 07:05:44;;;;;;;;;6.00;6.00;;;;;10.56;73.95;101324.94;4994939;28;45454;-79
2023/12/27 07:08:10;;;;;;;;;4.33;4.33;;;;;10.53;74.15;101335.81;4994675;28;45338;-77
2023/12/27 07:10:35;;;;;;;;;6.67;5.00;;;;;10.54;73.77;101323.38;4993748;28;45277;-78
2023/12/27 07:13:01;;;;;;;;;6.67;6.67;;;;;10.43;74.39;101305.69;4994404;28;45272;-77
2023/12/27 07:15:27;;;;;;;;;7.00;4.00;;;;;10.46;74.00;101310.75;4994274;28;45641;-78
2023/12/27 07:17:52;;;;;;;;;5.33;5.33;;;;;10.51;73.77;101316.50;4993852;28;45455;-78
2023/12/27 07:20:17;;;;;;;;;6.67;5.00;;;;;10.37;74.31;101311.50;4994877;28;45312;-79
2023/12/27 07:22:43;;;;;;;;;7.00;5.00;;;;;10.26;73.98;101290.31;4995502;28;45486;-78
2023/12/27 07:25:08;;;;;;;;;6.33;6.33;;;;;10.27;73.78;101300.81;4994309;28;46179;-77
2023/12/27 07:27:34;;;;;;;;;6.33;6.00;;;;;10.37;74.42;101306.19;4994704;28;45481;-78
2023/12/27 07:29:59;;;;;;;;;6.33;6.00;;;;;10.27;73.97;101289.34;4995694;28;45435;-78
2023/12/27 07:32:25;;;;;;;;;5.33;4.67;;;;;10.38;74.28;101297.22;4987145;28;44863;-78
2023/12/27 07:34:57;;;;;;;;;9.67;6.33;;;;;10.30;74.25;101294.38;4994377;28;46125;-78
2023/12/27 07:37:23;;;;;;;;;7.67;6.67;;;;;10.39;73.84;101316.69;5014112;28;45470;-78
2023/12/27 07:39:48;;;;;;;;;4.67;4.67;;;;;10.20;74.00;101288.09;5003467;28;45490;-78
2023/12/27 07:42:14;;;;;;;;;9.67;8.00;;;;;10.24;74.04;101289.59;4995571;28;45459;-78
2023/12/27 07:44:41;;;;;;;;;6.33;6.00;;;;;10.33;73.83;101312.72;4995163;28;46518;-79
2023/12/27 07:47:07;;;;;;;;;6.00;6.00;;;;;10.25;73.67;101291.28;4993787;28;45400;-76
2023/12/27 07:49:32;;;;;;;;;9.00;6.67;;;;;10.34;73.78;101306.44;4999031;28;45402;-78
2023/12/27 07:51:58;;;;;;;;;7.00;6.00;;;;;10.21;73.55;101300.44;4998792;28;45290;-77
2023/12/27 07:54:23;;;;;;;;;7.00;5.00;;;;;10.36;73.96;101317.78;5001986;28;45229;-77
2023/12/27 07:56:48;;;;;;;;;9.33;7.00;;;;;10.27;73.74;101299.97;4993830;28;45289;-78
2023/12/27 07:59:14;;;;;;;;;7.00;7.00;;;;;10.15;73.37;101280.53;4995031;28;45364;-78
2023/12/27 08:01:39;;;;;;;;;5.33;4.33;;;;;9.51;73.39;101176.16;4996428;28;45481;-80
2023/12/27 08:04:05;;;;;;;;;6.67;6.67;;;;;9.80;73.66;101233.00;4998950;28;45327;-79
2023/12/27 08:06:30;;;;;;;;;6.00;5.00;;;;;9.88;73.15;101235.88;4999232;28;45474;-78
2023/12/27 08:08:56;;;;;;;;;7.00;6.00;;;;;10.32;73.07;101298.59;4997596;28;45529;-77
2023/12/27 08:11:21;;;;;;;;;5.00;5.00;;;;;10.15;72.79;101282.34;4997598;28;45789;-76
2023/12/27 08:13:47;;;;;;;;;10.00;8.33;;;;;10.17;73.09;101283.06;4997236;28;45513;-77
2023/12/27 08:16:12;;;;;;;;;8.33;6.00;;;;;10.25;72.78;101286.81;4989517;28;45453;-78
2023/12/27 08:18:38;;;;;;;;;7.67;7.33;;;;;10.30;73.41;101310.34;4996617;28;45416;-76
2023/12/27 08:21:04;;;;;;;;;8.33;7.33;;;;;10.16;72.94;101289.34;4997922;28;45436;-78
2023/12/27 08:23:30;;;;;;;;;6.33;6.33;;;;;10.19;72.86;101289.94;4997718;28;46336;-78
2023/12/27 08:25:56;;;;;;;;;8.00;8.00;;;;;10.25;72.77;101312.53;4997155;28;45356;-77
2023/12/27 08:28:22;;;;;;;;;10.67;6.67;;;;;9.95;72.24;101265.41;4996515;28;45420;-78
2023/12/27 08:30:48;;;;;;;;;5.67;4.33;;;;;10.25;72.45;101328.47;4997623;28;45506;-78
2023/12/27 08:33:13;;;;;;;;;5.67;5.67;;;;;10.03;71.88;101274.44;4987386;28;47455;-78
2023/12/27 08:35:39;;;;;;;;;10.00;6.33;;;;;9.57;71.73;101195.06;4998036;28;45396;-78
2023/12/27 08:38:05;;;;;;;;;11.00;8.00;;;;;10.31;71.71;101309.34;4998262;28;46194;-76
2023/12/27 08:40:30;;;;;;;;;6.00;6.00;;;;;10.10;71.61;101285.41;4989717;28;45845;-79
2023/12/27 08:42:57;;;;;;;;;5.33;5.33;;;;;10.22;71.70;101315.47;4996720;28;45930;-78
2023/12/27 08:45:23;;;;;;;;;7.67;7.67;;;;;10.14;71.68;101301.91;4997185;28;45605;-79
2023/12/27 08:47:48;;;;;;;;;8.00;6.33;;;;;10.13;71.08;101286.94;4997401;28;45398;-78
2023/12/27 08:50:14;;;;;;;;;8.00;7.67;;;;;9.84;70.54;101233.59;4998138;28;45546;-78
2023/12/27 08:52:39;;;;;;;;;6.00;6.00;;;;;10.14;70.06;101262.06;4996860;28;45381;-76
2023/12/27 08:55:10;;;;;;;;;8.67;8.00;;;;;10.40;69.81;101299.75;4995525;28;45495;-79
2023/12/27 08:57:37;;;;;;;;;9.67;6.67;;;;;10.28;69.86;101278.56;4997490;28;45390;-79
2023/12/27 09:00:06;;;;;;;;;8.67;8.00;;;;;10.27;69.39;101281.38;4997596;28;45652;-78
2023/12/27 09:02:31;;;;;;;;;8.00;6.00;;;;;10.34;69.56;101286.03;4997595;28;45497;-77
2023/12/27 09:04:56;;;;;;;;;8.33;6.67;;;;;10.46;69.49;101294.78;4996642;28;45389;-79
2023/12/27 09:07:22;;;;;;;;;7.33;7.33;;;;;10.44;68.91;101291.41;4997606;28;45547;-76
2023/12/27 09:09:47;;;;;;;;;9.33;8.00;;;;;10.41;69.03;101288.16;4996742;28;45528;-76
2023/12/27 09:12:13;;;;;;;;;6.33;5.33;;;;;10.18;69.19;101242.22;4995796;28;47001;-78
2023/12/27 09:14:39;;;;;;;;;9.33;8.33;;;;;10.43;68.69;101288.91;4997077;28;45481;-78
2023/12/27 09:17:05;;;;;;;;;5.00;5.00;;;;;10.52;68.60;101294.25;4999500;28;45565;-78
2023/12/27 09:19:30;;;;;;;;;11.33;11.33;;;;;10.59;68.07;101291.91;5000273;28;45355;-78
2023/12/27 09:21:56;;;;;;;;;8.00;8.00;;;;;10.51;68.53;101266.00;4997036;28;45718;-77
2023/12/27 09:24:21;;;;;;;;;11.00;8.00;;;;;10.72;68.15;101283.75;4997647;28;45694;-78
2023/12/27 09:26:48;;;;;;;;;6.00;6.00;;;;;10.72;68.07;101273.09;4997173;28;45433;-77
2023/12/27 09:29:13;;;;;;;;;7.33;7.00;;;;;10.75;67.29;101281.66;5011094;28;45389;-77
2023/12/27 09:31:39;;;;;;;;;11.67;7.67;;;;;10.74;67.81;101279.13;4991478;28;45433;-77
2023/12/27 09:34:05;;;;;;;;;9.33;8.67;;;;;10.32;66.96;101199.44;4986026;28;45343;-79
2023/12/27 09:36:31;;;;;;;;;7.00;6.00;;;;;10.85;67.50;101301.19;4987930;28;45434;-78
2023/12/27 09:38:56;;;;;;;;;7.00;7.00;;;;;10.80;66.98;101286.56;4997148;28;45553;-79
2023/12/27 09:41:22;;;;;;;;;7.67;6.33;;;;;10.82;66.86;101274.00;4978861;28;48134;-78
2023/12/27 09:43:51;;;;;;;;;11.33;8.67;;;;;10.76;66.58;101251.41;4994967;28;45480;-78
2023/12/27 09:46:18;;;;;;;;;9.33;7.33;;;;;10.87;66.29;101255.81;4997311;28;45352;-79
2023/12/27 09:48:45;;;;;;;;;9.67;9.67;;;;;11.03;66.18;101272.16;4989551;28;45426;-77
2023/12/27 09:51:13;;;;;;;;;8.33;6.67;;;;;11.02;65.45;101272.28;4996024;28;45561;-78
2023/12/27 09:53:40;;;;;;;;;6.00;4.00;;;;;11.18;65.27;101284.09;4996956;28;45502;-79
2023/12/27 09:56:06;;;;;;;;;8.00;8.00;;;;;10.63;65.84;101173.72;4999219;28;45561;-77
2023/12/27 09:58:35;;;;;;;;;8.33;7.00;;;;;11.26;64.97;101268.31;5001488;28;45477;-78
2023/12/27 10:01:02;;;;;;;;;8.00;8.00;;;;;11.41;65.22;101270.56;5000359;28;45507;-77
2023/12/27 10:03:35;;;;;;;;;6.33;6.00;;;;;11.07;64.58;101201.72;4999308;28;45332;-77
2023/12/27 10:06:32;;;;;;;;;7.00;6.00;;;;;11.48;64.03;101258.41;4990124;28;45380;-77
2023/12/27 10:08:58;;;;;;;;;7.67;7.00;;;;;11.54;63.96;101257.84;4985648;28;45539;-78
2023/12/27 10:11:23;;;;;;;;;6.00;6.00;;;;;11.42;63.75;101235.84;5012781;28;46683;-77
2023/12/27 10:13:50;;;;;;;;;6.67;5.33;;;;;11.60;63.68;101235.97;4995097;28;45311;-78
2023/12/27 10:16:15;;;;;;;;;3.00;3.00;;;;;11.54;63.71;101249.84;4999641;28;45494;-78
2023/12/27 10:18:45;;;;;;;;;6.00;6.00;;;;;11.44;63.11;101212.56;5010979;28;45300;-77
2023/12/27 10:21:10;;;;;;;;;7.67;5.67;;;;;11.51;63.04;101228.84;4999907;28;45483;-77
2023/12/27 10:23:36;;;;;;;;;7.33;6.67;;;;;11.65;63.32;101224.94;4997138;28;45259;-78
2023/12/27 10:26:02;;;;;;;;;7.00;7.00;;;;;11.71;62.71;101222.53;4995594;28;45592;-77
2023/12/27 10:28:27;;;;;;;;;5.67;4.67;;;;;11.54;62.51;101180.63;4996021;28;45365;-79
2023/12/27 10:30:53;;;;;;;;;7.33;4.00;;;;;11.75;62.53;101223.09;4987762;28;46434;-78
2023/12/27 10:33:23;;;;;;;;;7.00;7.00;;;;;11.22;62.53;101157.78;4995177;28;45528;-78
2023/12/27 10:35:49;;;;;;;;;6.00;6.00;;;;;11.70;62.74;101218.19;5003974;28;46095;-77
2023/12/27 10:38:14;;;;;;;;;5.67;5.67;;;;;11.61;61.90;101180.88;5002156;28;45374;-77
2023/12/27 10:40:40;;;;;;;;;7.33;7.33;;;;;11.78;62.24;101205.03;4998563;28;45499;-79
2023/12/27 10:43:06;;;;;;;;;7.00;6.00;;;;;11.78;62.32;101194.38;4999716;28;45477;-79
2023/12/27 10:45:32;;;;;;;;;7.00;5.00;;;;;11.82;62.17;101184.31;5006470;28;45532;-78
2023/12/27 10:48:00;;;;;;;;;8.67;7.00;;;;;11.83;62.20;101175.34;4998935;28;45420;-78
2023/12/27 10:50:32;;;;;;;;;8.00;7.00;;;;;11.55;61.79;101119.22;4987554;28;46191;-79
2023/12/27 10:53:08;;;;;;;;;6.00;6.00;;;;;11.87;62.23;101169.56;4992083;28;45454;-77
2023/12/27 10:55:35;;;;;;;;;7.00;7.00;;;;;11.59;61.30;101125.09;4995945;28;45391;-78
2023/12/27 10:58:02;;;;;;;;;10.00;7.67;;;;;11.82;61.42;101155.00;4996922;28;45493;-78
2023/12/27 11:00:28;;;;;;;;;4.33;4.00;;;;;11.85;61.66;101147.56;4996479;28;46047;-78
2023/12/27 11:02:55;;;;;;;;;5.33;5.33;;;;;11.91;60.99;101146.16;4997776;28;45481;-79
2023/12/27 11:05:22;;;;;;;;;5.67;5.67;;;;;11.04;60.76;101007.75;4999143;28;45648;-78
2023/12/27 11:07:49;;;;;;;;;7.00;6.33;;;;;11.58;61.48;101091.47;4995707;28;45380;-78
2023/12/27 11:10:16;;;;;;;;;7.33;5.67;;;;;11.90;61.13;101130.31;4995542;28;45321;-78
2023/12/27 11:12:46;;;;;;;;;8.67;7.00;;;;;11.80;60.60;101107.16;4996068;28;45519;-78
2023/12/27 11:15:14;;;;;;;;;4.67;4.33;;;;;11.85;60.82;101120.09;4999702;28;45480;-77